Time;durP1;ratioP1;P1;durP2;ratioP2;P2;SDS_P1;SDS_P2;PMS_P1;PMS_P2;Temp;Humidity;BMP_temperature;BMP_pressure;BME280_temperature;BME280_humidity;BME280_pressure;Samples;Min_cycle;Max_cycle;Signal;HPM_P1;HPM_P2
2022/11/27 00:02:10;;;;;;;25.67;14.97;;;;;;;6.13;69.93;100606.78;5071448;28;20195;-65
2022/11/27 00:04:37;;;;;;;20.60;14.50;;;;;;;6.20;70.40;100615.81;5071290;28;20737;-65
2022/11/27 00:07:04;;;;;;;18.70;15.20;;;;;;;6.26;70.10;100605.53;5071291;28;20224;-65
2022/11/27 00:09:32;;;;;;;20.90;14.53;;;;;;;6.29;70.77;100601.78;5072091;28;20258;-65
2022/11/27 00:11:59;;;;;;;17.43;14.27;;;;;;;6.32;71.40;100606.78;5075349;28;20192;-65
2022/11/27 00:14:27;;;;;;;23.00;15.33;;;;;;;6.43;71.23;100611.88;5074811;28;20251;-65
2022/11/27 00:16:53;;;;;;;23.20;15.20;;;;;;;6.51;70.65;100619.91;5074680;28;20204;-65
2022/11/27 00:19:20;;;;;;;23.30;15.27;;;;;;;6.60;71.04;100614.59;5079791;28;20691;-65
2022/11/27 00:21:47;;;;;;;23.43;14.73;;;;;;;6.64;70.80;100617.78;5096283;28;20245;-65
2022/11/27 00:24:13;;;;;;;24.60;15.50;;;;;;;6.53;70.92;100612.69;5095483;28;20257;-65
2022/11/27 00:26:40;;;;;;;22.77;15.67;;;;;;;6.53;71.51;100620.63;5095263;28;20187;-65
2022/11/27 00:29:07;;;;;;;21.90;15.43;;;;;;;6.54;70.73;100620.47;5095204;28;20248;-65
2022/11/27 00:31:37;;;;;;;18.47;14.30;;;;;;;6.58;71.14;100618.38;5075120;28;20229;-65
2022/11/27 00:34:05;;;;;;;21.83;15.77;;;;;;;6.60;71.59;100613.78;5074756;28;20258;-64
2022/11/27 00:36:34;;;;;;;21.80;16.20;;;;;;;6.68;71.29;100620.00;5075124;28;20205;-65
2022/11/27 00:39:01;;;;;;;24.57;15.33;;;;;;;6.74;70.96;100623.88;5074431;28;20245;-65
2022/11/27 00:41:29;;;;;;;25.07;15.90;;;;;;;6.72;71.16;100625.81;5074474;28;20629;-65
2022/11/27 00:43:57;;;;;;;19.13;15.20;;;;;;;6.70;71.25;100628.59;5074882;28;20257;-65
2022/11/27 00:46:26;;;;;;;23.00;14.70;;;;;;;6.71;71.31;100632.09;5074700;28;20192;-65
2022/11/27 00:48:54;;;;;;;23.63;15.37;;;;;;;6.73;71.06;100635.44;5074312;28;20230;-65
2022/11/27 00:51:23;;;;;;;19.40;14.97;;;;;;;6.82;70.39;100634.56;5074372;28;20197;-65
2022/11/27 00:53:50;;;;;;;21.10;15.47;;;;;;;6.74;70.00;100639.72;5074119;28;20208;-65
2022/11/27 00:56:19;;;;;;;23.40;15.57;;;;;;;6.65;70.00;100633.47;5074524;28;20190;-65
2022/11/27 00:58:46;;;;;;;17.77;14.07;;;;;;;6.67;70.37;100649.19;5074140;28;20197;-65
2022/11/27 01:01:18;;;;;;;21.37;15.47;;;;;;;6.68;70.10;100642.91;5075280;28;20245;-64
2022/11/27 01:03:45;;;;;;;23.90;15.07;;;;;;;6.70;69.89;100635.72;5073996;28;20279;-64
2022/11/27 01:06:14;;;;;;;22.90;14.53;;;;;;;6.70;69.49;100635.72;5077063;28;20630;-64
2022/11/27 01:08:41;;;;;;;19.30;14.60;;;;;;;6.70;69.24;100630.44;5094469;28;20248;-64
2022/11/27 01:11:08;;;;;;;20.23;14.37;;;;;;;6.69;70.01;100631.41;5094848;28;20191;-64
2022/11/27 01:13:36;;;;;;;24.97;14.43;;;;;;;6.62;70.21;100627.66;5094582;28;20328;-64
2022/11/27 01:16:06;;;;;;;19.00;15.27;;;;;;;6.67;70.21;100628.06;5094402;28;20218;-65
2022/11/27 01:18:33;;;;;;;19.00;15.37;;;;;;;6.70;69.78;100619.88;5094568;28;20289;-64
2022/11/27 01:21:01;;;;;;;20.43;15.30;;;;;;;6.59;69.91;100622.66;5094133;28;20222;-65
2022/11/27 01:23:29;;;;;;;21.13;15.10;;;;;;;6.47;69.70;100618.53;5093898;28;20656;-64
2022/11/27 01:25:56;;;;;;;21.93;15.50;;;;;;;6.50;70.87;100620.88;5094052;28;20252;-65
2022/11/27 01:28:24;;;;;;;21.37;15.80;;;;;;;6.44;70.39;100618.81;5093838;28;20576;-65
2022/11/27 01:30:51;;;;;;;21.30;15.17;;;;;;;6.42;70.12;100618.97;5079705;28;20760;-64
2022/11/27 01:33:18;;;;;;;20.53;15.00;;;;;;;6.42;70.58;100620.78;5073496;28;20659;-64
2022/11/27 01:35:53;;;;;;;19.67;15.37;;;;;;;6.41;70.92;100625.22;5073698;28;20216;-65
2022/11/27 01:38:20;;;;;;;22.37;15.33;;;;;;;6.45;71.29;100617.84;5073493;28;20640;-64
2022/11/27 01:40:48;;;;;;;23.87;15.23;;;;;;;6.41;71.28;100617.28;5073711;28;20254;-64
2022/11/27 01:43:16;;;;;;;20.73;14.50;;;;;;;6.34;70.97;100615.38;5073311;28;20574;-64
2022/11/27 01:45:43;;;;;;;17.40;13.83;;;;;;;6.28;71.27;100624.69;5073215;28;20577;-64
2022/11/27 01:48:13;;;;;;;21.03;15.23;;;;;;;6.34;71.59;100620.66;5073571;28;20193;-64
2022/11/27 01:50:40;;;;;;;25.03;16.23;;;;;;;6.29;72.33;100617.59;5073502;28;20192;-64
2022/11/27 01:53:13;;;;;;;26.87;16.63;;;;;;;6.22;71.99;100621.78;5073573;28;20247;-64
2022/11/27 01:55:44;;;;;;;25.90;18.23;;;;;;;6.23;71.95;100612.88;5073023;28;20265;-64
2022/11/27 01:58:17;;;;;;;27.57;18.70;;;;;;;6.31;72.24;100613.84;5073084;28;20190;-64
2022/11/27 02:00:44;;;;;;;25.60;18.67;;;;;;;6.38;71.78;100614.09;5073385;28;20238;-64
2022/11/27 02:03:11;;;;;;;25.30;17.47;;;;;;;6.47;72.00;100602.69;5073269;28;20197;-63
2022/11/27 02:05:38;;;;;;;30.53;20.13;;;;;;;6.49;71.71;100595.47;5073265;28;20200;-64
2022/11/27 02:08:08;;;;;;;31.20;19.87;;;;;;;6.53;71.64;100610.06;5091929;28;20189;-64
2022/11/27 02:10:44;;;;;;;27.70;20.67;;;;;;;6.49;71.39;100606.03;5093351;28;20185;-64
2022/11/27 02:13:15;;;;;;;30.80;21.20;;;;;;;6.54;71.12;100609.91;5093085;28;20247;-64
2022/11/27 02:15:46;;;;;;;32.33;21.23;;;;;;;6.54;71.64;100607.28;5093026;28;20276;-64
2022/11/27 02:18:21;;;;;;;29.13;20.13;;;;;;;6.64;71.36;100609.88;5093088;28;20706;-63
2022/11/27 02:20:55;;;;;;;28.67;19.50;;;;;;;6.57;72.08;100606.16;5093250;28;20179;-64
2022/11/27 02:23:47;;;;;;;28.83;19.60;;;;;;;6.53;71.94;100610.88;5093696;28;20182;-64
2022/11/27 02:26:27;;;;;;;30.03;20.27;;;;;;;6.57;71.37;100619.34;5093391;28;20199;-64
2022/11/27 02:29:00;;;;;;;29.03;19.53;;;;;;;6.54;71.76;100611.72;5093233;28;20185;-64
2022/11/27 02:31:36;;;;;;;23.87;18.30;;;;;;;6.58;71.98;100610.44;5073839;28;20188;-64
2022/11/27 02:34:13;;;;;;;24.90;18.07;;;;;;;6.64;71.84;100612.50;5071938;28;20188;-64
2022/11/27 02:36:49;;;;;;;25.70;18.77;;;;;;;6.69;71.62;100621.66;5072662;28;20199;-64
2022/11/27 02:39:22;;;;;;;26.57;18.23;;;;;;;6.70;71.16;100622.50;5073403;28;20264;-64
2022/11/27 02:41:53;;;;;;;26.47;18.00;;;;;;;6.73;71.82;100619.59;5072616;28;20188;-65
2022/11/27 02:44:23;;;;;;;26.63;17.00;;;;;;;6.73;70.94;100617.75;5072501;28;20220;-64
2022/11/27 02:46:50;;;;;;;21.30;16.77;;;;;;;6.71;71.17;100622.38;5072475;28;20188;-64
2022/11/27 02:49:19;;;;;;;24.27;17.63;;;;;;;6.68;71.69;100624.44;5072914;28;20618;-64
2022/11/27 02:51:53;;;;;;;28.00;17.80;;;;;;;6.73;71.16;100630.97;5072330;28;20242;-64
2022/11/27 02:54:25;;;;;;;24.90;17.43;;;;;;;6.76;71.26;100630.69;5072834;28;20574;-64
2022/11/27 02:56:53;;;;;;;24.40;17.07;;;;;;;6.73;71.66;100619.59;5072058;28;20204;-64
2022/11/27 02:59:24;;;;;;;26.80;16.90;;;;;;;6.72;71.83;100628.47;5072003;28;20671;-64
2022/11/27 03:01:55;;;;;;;22.17;16.33;;;;;;;6.81;71.55;100638.19;5072320;28;20184;-64
2022/11/27 03:04:27;;;;;;;24.13;17.47;;;;;;;6.82;71.52;100634.56;5072787;28;20192;-64
2022/11/27 03:06:57;;;;;;;20.93;16.33;;;;;;;6.84;71.13;100629.94;5081055;28;20191;-64
2022/11/27 03:09:29;;;;;;;21.33;16.23;;;;;;;6.92;71.05;100637.97;5092073;28;20658;-64
2022/11/27 03:11:56;;;;;;;21.07;16.03;;;;;;;6.96;71.28;100632.28;5092371;28;20187;-64
2022/11/27 03:14:25;;;;;;;25.07;15.83;;;;;;;7.00;70.75;100643.38;5091949;28;20194;-64
2022/11/27 03:17:05;;;;;;;20.53;15.93;;;;;;;6.90;70.99;100639.97;5091941;28;20639;-64
2022/11/27 03:19:41;;;;;;;21.90;15.33;;;;;;;6.81;71.03;100641.63;5092511;28;20193;-65
2022/11/27 03:22:07;;;;;;;19.37;15.13;;;;;;;6.61;71.56;100632.09;5092567;28;20186;-64
2022/11/27 03:24:35;;;;;;;23.27;14.00;;;;;;;6.56;71.79;100644.06;5093111;28;20191;-65
2022/11/27 03:27:03;;;;;;;21.00;14.17;;;;;;;6.55;71.78;100631.84;5092497;28;20187;-64
2022/11/27 03:29:37;;;;;;;23.33;14.83;;;;;;;6.54;72.10;100635.47;5089470;28;20202;-64
2022/11/27 03:32:05;;;;;;;20.80;15.07;;;;;;;6.46;72.86;100632.72;5072329;28;20191;-64
2022/11/27 03:34:33;;;;;;;18.67;14.17;;;;;;;6.52;72.57;100637.41;5071617;28;20204;-64
2022/11/27 03:37:00;;;;;;;23.57;15.10;;;;;;;6.61;72.62;100636.56;5071899;28;20195;-64
2022/11/27 03:39:28;;;;;;;23.57;15.73;;;;;;;6.64;72.83;100636.25;5071622;28;20203;-64
2022/11/27 03:42:09;;;;;;;19.77;15.00;;;;;;;6.57;71.81;100640.47;5071840;28;20188;-64
2022/11/27 03:44:46;;;;;;;19.60;15.73;;;;;;;6.52;72.27;100632.13;5072914;28;20183;-64
2022/11/27 03:47:26;;;;;;;21.17;15.77;;;;;;;6.44;72.26;100639.91;5075867;28;20214;-64
2022/11/27 03:50:09;;;;;;;18.63;13.67;;;;;;;6.36;72.79;100642.47;5075546;28;20183;-64
2022/11/27 03:52:44;;;;;;;20.03;14.33;;;;;;;6.33;72.85;100633.00;5075845;28;20189;-64
2022/11/27 03:55:17;;;;;;;15.00;12.70;;;;;;;6.31;73.47;100629.69;5075634;28;20206;-64
2022/11/27 03:57:54;;;;;;;20.63;14.27;;;;;;;6.35;72.74;100631.06;5075443;28;20206;-64
2022/11/27 04:00:22;;;;;;;22.20;13.70;;;;;;;6.38;73.30;100635.22;5075218;28;20206;-64
2022/11/27 04:02:51;;;;;;;19.60;13.17;;;;;;;6.43;72.71;100632.97;5075563;28;20238;-64
2022/11/27 04:05:19;;;;;;;16.67;12.73;;;;;;;6.38;73.02;100630.78;5075113;28;20659;-65
2022/11/27 04:07:46;;;;;;;17.07;13.40;;;;;;;6.46;72.43;100627.44;5091726;28;20249;-65
2022/11/27 04:10:13;;;;;;;18.47;13.50;;;;;;;6.43;73.16;100622.44;5077374;28;20256;-65
2022/11/27 04:12:41;;;;;;;17.43;13.13;;;;;;;6.37;72.46;100623.81;5095212;28;20242;-65
2022/11/27 04:15:09;;;;;;;19.00;15.00;;;;;;;6.34;72.97;100615.38;5095232;28;20216;-65
2022/11/27 04:17:37;;;;;;;19.17;14.47;;;;;;;6.38;73.35;100622.03;5095456;28;20223;-65
2022/11/27 04:20:04;;;;;;;18.07;14.43;;;;;;;6.38;73.53;100622.88;5095200;28;20202;-64
2022/11/27 04:22:31;;;;;;;17.77;14.00;;;;;;;6.33;73.39;100625.06;5095085;28;20195;-64
2022/11/27 04:24:58;;;;;;;18.93;15.23;;;;;;;6.28;73.37;100621.22;5095456;28;20199;-64
2022/11/27 04:27:24;;;;;;;17.53;13.77;;;;;;;6.23;73.89;100624.28;5095295;28;20191;-65
2022/11/27 04:29:51;;;;;;;19.83;14.33;;;;;;;6.24;74.55;100630.41;5089301;28;20729;-65
2022/11/27 04:32:18;;;;;;;20.20;14.33;;;;;;;6.28;74.05;100634.41;5074864;28;20264;-65
2022/11/27 04:34:46;;;;;;;19.93;15.97;;;;;;;6.18;74.13;100634.41;5074920;28;20249;-65
2022/11/27 04:37:12;;;;;;;21.10;13.87;;;;;;;6.10;74.73;100630.81;5074544;28;20624;-65
2022/11/27 04:39:39;;;;;;;20.97;14.20;;;;;;;6.17;74.27;100624.00;5074573;28;20192;-65
2022/11/27 04:42:07;;;;;;;22.57;14.00;;;;;;;6.22;74.34;100625.25;5074431;28;20727;-65
2022/11/27 04:44:34;;;;;;;18.80;13.97;;;;;;;6.21;73.63;100628.03;5074469;28;20250;-65
2022/11/27 04:47:01;;;;;;;16.30;13.53;;;;;;;6.20;73.86;100631.66;5074950;28;20251;-65
2022/11/27 04:49:28;;;;;;;20.73;13.97;;;;;;;6.15;73.79;100633.84;5075459;28;20197;-65
2022/11/27 04:51:56;;;;;;;19.30;14.17;;;;;;;6.15;73.96;100644.41;5074308;28;20196;-65
2022/11/27 04:54:22;;;;;;;19.00;14.70;;;;;;;6.23;74.07;100636.63;5074267;28;20224;-64
2022/11/27 04:56:49;;;;;;;20.97;14.60;;;;;;;6.24;74.26;100633.03;5073858;28;20272;-64
2022/11/27 04:59:16;;;;;;;19.07;14.63;;;;;;;6.23;73.54;100639.25;5074213;28;20612;-64
2022/11/27 05:01:42;;;;;;;22.90;15.40;;;;;;;6.12;74.23;100639.44;5074464;28;20254;-65
2022/11/27 05:04:09;;;;;;;21.03;15.63;;;;;;;6.11;74.51;100640.38;5074718;28;20253;-65
2022/11/27 05:06:36;;;;;;;19.87;15.87;;;;;;;6.09;74.64;100634.41;5081346;28;20211;-64
2022/11/27 05:09:04;;;;;;;25.00;15.77;;;;;;;6.06;74.62;100629.41;5094314;28;20196;-65
2022/11/27 05:11:31;;;;;;;24.83;15.67;;;;;;;6.04;75.34;100636.66;5094861;28;20245;-64
2022/11/27 05:16:39;;;;;;;18.60;15.30;;;;;;;6.17;74.83;100637.19;5093832;28;20216;-64
2022/11/27 05:19:05;;;;;;;22.27;14.97;;;;;;;6.19;74.49;100638.72;5094577;28;20284;-65
2022/11/27 05:21:33;;;;;;;24.57;16.70;;;;;;;6.22;74.97;100645.50;5094513;28;20192;-65
2022/11/27 05:24:00;;;;;;;30.10;15.87;;;;;;;6.25;74.32;100650.53;5094634;28;20187;-65
2022/11/27 05:26:28;;;;;;;28.63;17.47;;;;;;;6.14;74.12;100626.91;5093778;28;20199;-65
2022/11/27 05:28:54;;;;;;;24.57;17.53;;;;;;;6.28;74.61;100650.25;5093850;28;20662;-65
2022/11/27 05:31:21;;;;;;;24.83;16.63;;;;;;;6.17;74.12;100642.47;5076100;28;20193;-65
2022/11/27 05:33:48;;;;;;;27.20;17.50;;;;;;;6.25;74.18;100661.06;5073592;28;20330;-64
2022/11/27 05:36:14;;;;;;;28.10;18.03;;;;;;;6.27;73.85;100653.84;5074249;28;20265;-64
2022/11/27 05:38:41;;;;;;;26.83;17.93;;;;;;;6.31;73.55;100657.84;5073450;28;20730;-64
2022/11/27 05:41:08;;;;;;;24.50;16.80;;;;;;;6.33;73.64;100655.94;5073439;28;20196;-65
2022/11/27 05:43:36;;;;;;;26.43;18.30;;;;;;;6.35;73.98;100651.31;5073571;28;20283;-65
2022/11/27 05:46:05;;;;;;;26.43;18.23;;;;;;;6.34;73.75;100652.31;5073914;28;20371;-65
2022/11/27 05:48:32;;;;;;;23.77;17.67;;;;;;;6.35;73.94;100651.31;5073221;28;20260;-64
2022/11/27 05:50:59;;;;;;;25.80;17.37;;;;;;;6.44;74.03;100655.75;5074402;28;20245;-65
2022/11/27 05:53:25;;;;;;;24.67;16.83;;;;;;;6.48;73.74;100667.69;5073088;28;20205;-64
2022/11/27 05:55:52;;;;;;;24.67;17.57;;;;;;;6.49;73.41;100672.03;5073062;28;20587;-64
2022/11/27 05:58:19;;;;;;;26.70;18.13;;;;;;;6.52;73.48;100682.28;5073307;28;20269;-64
2022/11/27 06:00:47;;;;;;;23.03;16.43;;;;;;;6.53;73.43;100682.13;5073286;28;20276;-64
2022/11/27 06:03:13;;;;;;;29.33;19.70;;;;;;;6.47;74.08;100680.06;5073552;28;20215;-65
2022/11/27 06:05:41;;;;;;;35.10;19.97;;;;;;;6.49;73.96;100674.66;5072886;28;20249;-64
2022/11/27 06:08:08;;;;;;;32.17;19.47;;;;;;;6.45;73.38;100681.19;5091120;28;20651;-64
2022/11/27 06:10:34;;;;;;;28.43;19.13;;;;;;;6.45;73.42;100675.91;5093093;28;20612;-65
2022/11/27 06:13:01;;;;;;;28.83;19.63;;;;;;;6.45;73.95;100689.13;5092167;28;20196;-64
2022/11/27 06:15:28;;;;;;;31.03;20.87;;;;;;;6.48;73.18;100683.53;5088026;28;20216;-64
2022/11/27 06:17:56;;;;;;;32.53;22.63;;;;;;;6.59;73.61;100691.31;5070921;28;20228;-65
2022/11/27 06:20:23;;;;;;;66.23;22.50;;;;;;;6.71;72.97;100690.16;5070977;28;20234;-65
2022/11/27 06:22:50;;;;;;;30.30;19.13;;;;;;;6.75;73.07;100691.56;5071727;28;20624;-64
2022/11/27 06:25:17;;;;;;;38.40;23.20;;;;;;;6.79;72.50;100687.66;5072646;28;20246;-63
2022/11/27 06:27:44;;;;;;;41.17;22.00;;;;;;;6.76;72.69;100685.28;5072175;28;20196;-64
2022/11/27 06:30:12;;;;;;;29.17;19.23;;;;;;;6.87;72.24;100690.41;5080502;28;20547;-64
2022/11/27 06:32:38;;;;;;;28.10;19.40;;;;;;;6.98;72.21;100692.91;5093051;28;20187;-64
2022/11/27 06:35:08;;;;;;;25.50;17.97;;;;;;;7.09;71.84;100687.41;5092451;28;20215;-64
2022/11/27 06:37:34;;;;;;;33.83;20.63;;;;;;;7.17;71.16;100692.81;5091991;28;20577;-65
2022/11/27 06:40:01;;;;;;;35.47;21.27;;;;;;;7.07;70.47;100676.16;5091454;28;20250;-64
2022/11/27 06:42:28;;;;;;;59.80;32.90;;;;;;;7.15;70.34;100694.78;5089438;28;20216;-67
2022/11/27 06:44:55;;;;;;;53.13;29.77;;;;;;;7.17;70.53;100691.00;5091057;28;20197;-65
2022/11/27 06:47:22;;;;;;;47.87;26.17;;;;;;;7.13;69.99;100686.16;5091236;28;20745;-65
2022/11/27 06:49:49;;;;;;;32.07;19.10;;;;;;;7.16;71.90;100683.22;5091992;28;20242;-65
2022/11/27 06:52:17;;;;;;;28.57;15.53;;;;;;;7.22;69.84;100701.16;5092078;28;20248;-72
2022/11/27 06:54:44;;;;;;;25.07;16.60;;;;;;;7.49;74.24;100688.78;5093020;28;20195;-65
2022/11/27 06:57:11;;;;;;;21.80;15.27;;;;;;;7.44;70.43;100701.59;5091863;28;20215;-64
2022/11/27 06:59:37;;;;;;;33.03;16.73;;;;;;;7.42;70.23;100692.13;5092077;28;20743;-65
2022/11/27 07:02:04;;;;;;;23.47;15.47;;;;;;;7.51;69.35;100686.81;5092470;28;20259;-65
2022/11/27 07:04:31;;;;;;;20.37;14.30;;;;;;;7.60;68.55;100695.69;5092216;28;20201;-64
2022/11/27 07:06:58;;;;;;;20.67;13.70;;;;;;;7.61;68.27;100697.34;5082858;28;20257;-64
2022/11/27 07:09:26;;;;;;;20.50;14.43;;;;;;;7.42;69.00;100671.00;5071970;28;20292;-64
2022/11/27 07:11:52;;;;;;;22.60;14.23;;;;;;;7.57;68.14;100696.81;5071983;28;20194;-65
2022/11/27 07:14:19;;;;;;;42.97;14.90;;;;;;;7.56;70.40;100689.81;5071879;28;20223;-66
2022/11/27 07:16:46;;;;;;;20.03;14.67;;;;;;;7.59;69.21;100694.03;5071527;28;20774;-66
2022/11/27 07:19:13;;;;;;;38.13;14.17;;;;;;;7.53;68.50;100695.44;5071572;28;20227;-66
2022/11/27 07:21:40;;;;;;;18.03;13.00;;;;;;;7.47;68.35;100692.56;5071817;28;20644;-66
2022/11/27 07:24:07;;;;;;;14.53;11.90;;;;;;;7.40;68.87;100694.09;5071896;28;20245;-66
2022/11/27 07:26:36;;;;;;;16.47;12.67;;;;;;;7.40;69.30;100699.38;5072294;28;20255;-65
2022/11/27 07:29:03;;;;;;;17.17;12.73;;;;;;;7.42;68.89;100702.72;5071718;28;20193;-65
2022/11/27 07:31:30;;;;;;;15.67;11.90;;;;;;;7.37;69.86;100697.88;5090607;28;20195;-67
2022/11/27 07:33:57;;;;;;;17.20;12.20;;;;;;;7.38;69.81;100690.75;5091617;28;20198;-68
2022/11/27 07:36:26;;;;;;;22.40;13.40;;;;;;;7.50;70.14;100700.16;5091868;28;20280;-66
2022/11/27 07:38:52;;;;;;;18.80;13.47;;;;;;;7.71;69.86;100698.09;5091820;28;20617;-66
2022/11/27 07:41:19;;;;;;;20.83;13.27;;;;;;;7.78;69.19;100693.88;5091566;28;20312;-67
2022/11/27 07:43:48;;;;;;;19.70;16.17;;;;;;;7.94;68.69;100691.41;5091702;28;20567;-66
2022/11/27 07:46:16;;;;;;;17.83;13.37;;;;;;;8.17;68.95;100695.28;5091479;28;20263;-66
2022/11/27 07:48:43;;;;;;;21.67;16.00;;;;;;;8.36;67.98;100695.97;5091903;28;20590;-66
2022/11/27 07:51:12;;;;;;;17.40;14.23;;;;;;;8.43;67.24;100704.16;5091614;28;20283;-66
2022/11/27 07:53:40;;;;;;;15.83;12.87;;;;;;;8.47;67.29;100708.16;5091323;28;20249;-66
2022/11/27 07:56:08;;;;;;;21.30;14.37;;;;;;;8.37;67.17;100704.78;5091062;28;20759;-67
2022/11/27 07:58:35;;;;;;;53.53;20.83;;;;;;;8.37;67.53;100702.13;5091251;28;20229;-65
2022/11/27 08:01:06;;;;;;;17.70;14.73;;;;;;;8.45;66.18;100697.72;5090204;28;20656;-66
2022/11/27 08:03:33;;;;;;;24.10;14.10;;;;;;;8.61;67.04;100699.66;5091917;28;20183;-66
2022/11/27 08:06:00;;;;;;;23.10;14.37;;;;;;;8.76;66.41;100704.25;5089560;28;20200;-66
2022/11/27 08:08:26;;;;;;;27.00;15.23;;;;;;;8.87;66.32;100696.03;5071454;28;20570;-66
2022/11/27 08:10:53;;;;;;;15.80;13.93;;;;;;;8.90;65.82;100695.72;5071721;28;20191;-67
2022/11/27 08:13:20;;;;;;;19.63;13.83;;;;;;;8.98;65.12;100697.59;5070991;28;20754;-66
2022/11/27 08:15:47;;;;;;;19.87;14.23;;;;;;;9.05;64.46;100704.78;5070685;28;20229;-66
2022/11/27 08:18:15;;;;;;;22.53;15.73;;;;;;;9.01;64.59;100705.22;5071258;28;20231;-66
2022/11/27 08:20:42;;;;;;;25.03;14.60;;;;;;;8.94;64.92;100697.06;5074229;28;20199;-65
2022/11/27 08:23:08;;;;;;;16.90;13.47;;;;;;;8.88;65.22;100695.06;5087190;28;20211;-68
2022/11/27 08:25:37;;;;;;;17.27;14.67;;;;;;;8.73;66.08;100688.66;5091730;28;20203;-67
2022/11/27 08:28:04;;;;;;;29.40;15.57;;;;;;;8.61;65.89;100665.22;5091026;28;20204;-68
2022/11/27 08:30:30;;;;;;;20.17;14.00;;;;;;;8.68;65.86;100679.50;5090720;28;20184;-67
2022/11/27 08:32:57;;;;;;;20.73;13.93;;;;;;;8.75;66.68;100691.16;5094147;28;20260;-67
2022/11/27 08:35:25;;;;;;;17.17;14.27;;;;;;;8.75;66.58;100685.88;5092429;28;20195;-69
2022/11/27 08:37:52;;;;;;;17.53;13.37;;;;;;;8.85;66.02;100689.22;5093354;28;20253;-67
2022/11/27 08:40:19;;;;;;;17.73;13.63;;;;;;;8.88;65.64;100681.81;5092101;28;20187;-69
2022/11/27 08:42:45;;;;;;;17.57;13.77;;;;;;;8.96;65.19;100684.53;5092208;28;20257;-66
2022/11/27 08:45:12;;;;;;;18.77;14.27;;;;;;;9.00;65.24;100692.97;5090914;28;20252;-70
2022/11/27 08:47:39;;;;;;;18.07;13.60;;;;;;;9.12;64.77;100695.22;5090838;28;20626;-69
2022/11/27 08:50:07;;;;;;;23.67;13.57;;;;;;;9.13;63.73;100693.38;5088977;28;20289;-69
2022/11/27 08:52:35;;;;;;;15.00;12.47;;;;;;;9.17;64.25;100692.06;5093222;28;20240;-67
2022/11/27 08:55:02;;;;;;;15.63;11.90;;;;;;;9.35;63.46;100695.50;5093812;28;20241;-65
2022/11/27 08:57:29;;;;;;;14.37;12.20;;;;;;;9.39;63.96;100694.19;5092794;28;20229;-66
2022/11/27 08:59:56;;;;;;;16.57;13.50;;;;;;;9.34;63.56;100688.50;5091383;28;20260;-67
2022/11/27 09:02:22;;;;;;;17.83;12.90;;;;;;;9.39;63.54;100681.75;5092495;28;20275;-65
2022/11/27 09:04:49;;;;;;;16.20;13.77;;;;;;;9.45;63.01;100664.38;5090405;28;20340;-65
2022/11/27 09:07:16;;;;;;;17.20;13.80;;;;;;;9.54;63.45;100674.84;5076654;28;20196;-67
2022/11/27 09:09:44;;;;;;;20.73;13.77;;;;;;;9.72;62.74;100685.34;5063740;28;20195;-67
2022/11/27 09:12:11;;;;;;;19.13;13.80;;;;;;;9.90;62.00;100686.06;5062238;28;20192;-66
2022/11/27 09:14:38;;;;;;;19.40;13.87;;;;;;;10.08;61.59;100676.16;5066251;28;20199;-68
2022/11/27 09:17:04;;;;;;;17.63;13.67;;;;;;;10.10;61.66;100672.34;5065711;28;20215;-69
2022/11/27 09:19:31;;;;;;;17.53;13.93;;;;;;;10.18;61.58;100668.88;5070091;28;20613;-67
2022/11/27 09:21:58;;;;;;;19.20;13.53;;;;;;;10.25;60.34;100653.97;5071571;28;20257;-67
2022/11/27 09:24:25;;;;;;;20.80;14.43;;;;;;;10.36;59.47;100673.03;5069842;28;20283;-66
2022/11/27 09:26:53;;;;;;;19.63;14.70;;;;;;;10.39;59.90;100666.56;5070149;28;20195;-67
2022/11/27 09:29:20;;;;;;;22.10;14.87;;;;;;;10.42;59.15;100661.75;5071001;28;20695;-67
2022/11/27 09:31:46;;;;;;;19.80;14.70;;;;;;;10.45;60.00;100649.94;5091217;28;20204;-66
2022/11/27 09:34:13;;;;;;;19.13;14.53;;;;;;;10.57;59.72;100651.28;5093026;28;20195;-67
2022/11/27 09:36:40;;;;;;;18.13;13.73;;;;;;;10.72;59.29;100646.94;5093219;28;20224;-67
2022/11/27 09:39:07;;;;;;;18.10;13.87;;;;;;;10.78;58.56;100643.59;5093343;28;20200;-67
2022/11/27 09:41:43;;;;;;;19.07;14.60;;;;;;;10.91;57.31;100641.25;5092795;28;20257;-67
2022/11/27 09:44:31;;;;;;;25.10;16.13;;;;;;;11.04;57.06;100630.91;5093701;28;20213;-66
2022/11/27 09:47:01;;;;;;;18.90;14.80;;;;;;;11.11;57.00;100623.88;5093388;28;20210;-66
2022/11/27 09:49:33;;;;;;;17.70;13.63;;;;;;;11.19;56.85;100618.53;5092679;28;20482;-67
2022/11/27 09:52:04;;;;;;;28.33;15.43;;;;;;;11.33;56.20;100620.50;5092544;28;20190;-67
2022/11/27 09:54:36;;;;;;;19.67;14.67;;;;;;;11.39;56.13;100616.31;5092604;28;20182;-68
2022/11/27 09:57:04;;;;;;;22.10;14.73;;;;;;;11.46;55.61;100618.09;5093214;28;20205;-66
2022/11/27 09:59:39;;;;;;;24.63;15.10;;;;;;;11.51;54.74;100607.75;5092991;28;20242;-65
2022/11/27 10:02:16;;;;;;;19.77;15.23;;;;;;;11.54;54.33;100604.75;5093614;28;20246;-65
2022/11/27 10:04:43;;;;;;;23.50;15.83;;;;;;;11.50;54.40;100606.09;5092407;28;20668;-65
2022/11/27 10:07:18;;;;;;;28.00;16.73;;;;;;;11.51;54.31;100602.44;5081491;28;20197;-66
2022/11/27 10:10:01;;;;;;;26.30;15.97;;;;;;;11.57;54.93;100607.06;5072104;28;20722;-67
2022/11/27 10:12:41;;;;;;;21.20;14.50;;;;;;;11.66;54.11;100595.41;5072296;28;20190;-67
2022/11/27 10:15:15;;;;;;;20.93;14.13;;;;;;;11.72;54.51;100599.19;5071930;28;20249;-67
2022/11/27 10:17:47;;;;;;;22.73;14.50;;;;;;;11.65;54.14;100593.75;5072072;28;20693;-67
2022/11/27 10:20:22;;;;;;;17.37;14.03;;;;;;;11.59;54.31;100589.06;5072588;28;20182;-68
2022/11/27 10:22:57;;;;;;;14.50;12.93;;;;;;;11.65;54.18;100583.09;5072073;28;20188;-67
2022/11/27 10:25:29;;;;;;;22.47;13.53;;;;;;;11.82;53.32;100584.66;5072031;28;20611;-67
2022/11/27 10:28:08;;;;;;;16.87;11.83;;;;;;;11.85;52.30;100571.00;5071990;28;20624;-66
2022/11/27 10:30:40;;;;;;;19.10;12.97;;;;;;;11.97;52.43;100582.03;5083192;28;20184;-67
2022/11/27 10:33:16;;;;;;;18.70;13.10;;;;;;;11.92;52.64;100569.25;5092072;28;20189;-67
2022/11/27 10:35:46;;;;;;;14.90;11.70;;;;;;;11.91;51.96;100567.59;5092005;28;20185;-66
2022/11/27 10:38:17;;;;;;;12.70;11.40;;;;;;;12.06;51.46;100570.31;5091372;28;20214;-68
2022/11/27 10:40:49;;;;;;;16.13;12.20;;;;;;;12.06;50.43;100560.50;5071705;28;20256;-66
2022/11/27 10:43:19;;;;;;;16.33;11.00;;;;;;;11.97;50.24;100561.53;5071558;28;20243;-65
2022/11/27 10:45:51;;;;;;;125.87;76.43;;;;;;;12.42;84.06;100515.34;5069473;28;20201;-70
2022/11/27 10:48:18;;;;;;;15.73;12.67;;;;;;;12.94;52.43;100572.09;5065611;28;20206;-64
2022/11/27 10:50:46;;;;;;;12.97;10.87;;;;;;;12.91;49.42;100565.25;5068214;28;20230;-66
2022/11/27 10:53:17;;;;;;;14.50;10.40;;;;;;;12.90;48.99;100554.81;5065881;28;20214;-65
2022/11/27 10:56:07;;;;;;;12.47;11.07;;;;;;;13.05;48.47;100552.97;5088128;28;20198;-66
2022/11/27 10:58:41;;;;;;;13.43;11.00;;;;;;;13.14;47.88;100542.00;5087779;28;20210;-65
2022/11/27 11:01:11;;;;;;;11.63;10.47;;;;;;;13.30;46.15;100547.13;5089343;28;20247;-65
2022/11/27 11:03:38;;;;;;;9.93;8.93;;;;;;;13.38;45.37;100539.00;5088598;28;20607;-67
2022/11/27 11:06:08;;;;;;;10.07;9.17;;;;;;;13.45;44.99;100528.41;5086393;28;20663;-67
2022/11/27 11:08:35;;;;;;;13.00;10.10;;;;;;;13.67;45.02;100525.56;5068814;28;20192;-67
2022/11/27 11:11:05;;;;;;;12.93;10.67;;;;;;;13.74;44.75;100518.44;5070879;28;20203;-65
2022/11/27 11:13:32;;;;;;;16.17;11.63;;;;;;;13.45;45.79;100507.88;5069347;28;20198;-65
2022/11/27 11:16:03;;;;;;;15.63;12.13;;;;;;;13.42;46.59;100505.59;5070600;28;20254;-65
2022/11/27 11:18:32;;;;;;;23.20;13.03;;;;;;;13.27;46.73;100502.13;5069472;28;20232;-66
2022/11/27 11:21:02;;;;;;;16.10;12.60;;;;;;;13.08;46.86;100513.44;5070184;28;20202;-66
2022/11/27 11:23:32;;;;;;;14.70;11.53;;;;;;;13.01;47.02;100509.84;5069780;28;20192;-68
2022/11/27 11:26:07;;;;;;;14.23;12.73;;;;;;;12.95;47.21;100505.22;5070090;28;20187;-68
2022/11/27 11:28:40;;;;;;;16.73;13.20;;;;;;;12.94;47.26;100503.56;5070854;28;20245;-66